sensor_id;sensor_type;location;lat;lon;timestamp;P1;durP1;ratioP1;P2;durP2;ratioP2
3433;SDS011;1730;41.932;25.548;2023-03-14T00:00:22;11.87;;;7.83;;
3433;SDS011;1730;41.932;25.548;2023-03-14T00:02:52;20.00;;;6.67;;
3433;SDS011;1730;41.932;25.548;2023-03-14T00:05:18;11.63;;;7.20;;
3433;SDS011;1730;41.932;25.548;2023-03-14T00:07:43;11.87;;;5.20;;
3433;SDS011;1730;41.932;25.548;2023-03-14T00:10:11;7.97;;;5.77;;
3433;SDS011;1730;41.932;25.548;2023-03-14T00:12:39;12.57;;;5.57;;
3433;SDS011;1730;41.932;25.548;2023-03-14T00:15:06;11.60;;;5.63;;
3433;SDS011;1730;41.932;25.548;2023-03-14T00:17:33;9.70;;;4.83;;
3433;SDS011;1730;41.932;25.548;2023-03-14T00:20:00;8.43;;;5.90;;
3433;SDS011;1730;41.932;25.548;2023-03-14T00:22:29;10.90;;;5.80;;
3433;SDS011;1730;41.932;25.548;2023-03-14T00:24:55;6.47;;;5.60;;
3433;SDS011;1730;41.932;25.548;2023-03-14T00:27:21;7.60;;;3.93;;
3433;SDS011;1730;41.932;25.548;2023-03-14T00:29:46;7.60;;;5.37;;
3433;SDS011;1730;41.932;25.548;2023-03-14T00:32:12;9.40;;;5.53;;
3433;SDS011;1730;41.932;25.548;2023-03-14T00:34:37;8.00;;;5.47;;
3433;SDS011;1730;41.932;25.548;2023-03-14T00:37:03;7.70;;;4.77;;
3433;SDS011;1730;41.932;25.548;2023-03-14T00:39:28;6.10;;;5.10;;
3433;SDS011;1730;41.932;25.548;2023-03-14T00:41:54;6.90;;;5.73;;
3433;SDS011;1730;41.932;25.548;2023-03-14T00:44:20;6.60;;;5.27;;
3433;SDS011;1730;41.932;25.548;2023-03-14T00:46:45;7.90;;;5.03;;
3433;SDS011;1730;41.932;25.548;2023-03-14T00:49:10;16.30;;;5.83;;
3433;SDS011;1730;41.932;25.548;2023-03-14T00:51:36;10.07;;;5.87;;
3433;SDS011;1730;41.932;25.548;2023-03-14T00:54:01;9.13;;;6.47;;
3433;SDS011;1730;41.932;25.548;2023-03-14T00:56:27;8.90;;;6.43;;
3433;SDS011;1730;41.932;25.548;2023-03-14T00:58:53;12.73;;;8.63;;
3433;SDS011;1730;41.932;25.548;2023-03-14T01:01:20;12.53;;;7.07;;
3433;SDS011;1730;41.932;25.548;2023-03-14T01:03:46;12.70;;;6.77;;
3433;SDS011;1730;41.932;25.548;2023-03-14T01:06:13;12.00;;;7.20;;
3433;SDS011;1730;41.932;25.548;2023-03-14T01:08:50;9.47;;;6.23;;
3433;SDS011;1730;41.932;25.548;2023-03-14T01:11:18;6.37;;;5.43;;
3433;SDS011;1730;41.932;25.548;2023-03-14T01:13:45;6.57;;;5.57;;
3433;SDS011;1730;41.932;25.548;2023-03-14T01:16:11;7.77;;;4.63;;
3433;SDS011;1730;41.932;25.548;2023-03-14T01:18:38;6.97;;;5.50;;
3433;SDS011;1730;41.932;25.548;2023-03-14T01:21:09;4.30;;;4.00;;
3433;SDS011;1730;41.932;25.548;2023-03-14T01:23:37;7.10;;;4.57;;
3433;SDS011;1730;41.932;25.548;2023-03-14T01:26:03;5.70;;;4.70;;
3433;SDS011;1730;41.932;25.548;2023-03-14T01:28:28;8.23;;;5.40;;
3433;SDS011;1730;41.932;25.548;2023-03-14T01:30:55;6.40;;;4.90;;
3433;SDS011;1730;41.932;25.548;2023-03-14T01:33:20;6.90;;;4.90;;
3433;SDS011;1730;41.932;25.548;2023-03-14T01:35:49;5.43;;;4.50;;
3433;SDS011;1730;41.932;25.548;2023-03-14T01:38:15;5.17;;;4.50;;
3433;SDS011;1730;41.932;25.548;2023-03-14T01:40:43;5.67;;;4.00;;
3433;SDS011;1730;41.932;25.548;2023-03-14T01:43:14;5.87;;;4.50;;
3433;SDS011;1730;41.932;25.548;2023-03-14T01:48:31;8.30;;;4.73;;
3433;SDS011;1730;41.932;25.548;2023-03-14T01:51:09;5.00;;;4.30;;
3433;SDS011;1730;41.932;25.548;2023-03-14T01:53:38;5.57;;;5.00;;
3433;SDS011;1730;41.932;25.548;2023-03-14T01:56:07;5.70;;;4.10;;
3433;SDS011;1730;41.932;25.548;2023-03-14T01:58:35;5.63;;;4.13;;
3433;SDS011;1730;41.932;25.548;2023-03-14T02:01:02;7.33;;;4.40;;
3433;SDS011;1730;41.932;25.548;2023-03-14T02:03:29;5.60;;;4.67;;
3433;SDS011;1730;41.932;25.548;2023-03-14T02:05:59;8.57;;;4.50;;
3433;SDS011;1730;41.932;25.548;2023-03-14T02:08:29;5.30;;;4.80;;
3433;SDS011;1730;41.932;25.548;2023-03-14T02:10:56;7.40;;;5.30;;
3433;SDS011;1730;41.932;25.548;2023-03-14T02:13:23;8.37;;;4.80;;
3433;SDS011;1730;41.932;25.548;2023-03-14T02:15:50;6.33;;;5.17;;
3433;SDS011;1730;41.932;25.548;2023-03-14T02:18:16;4.83;;;4.20;;
3433;SDS011;1730;41.932;25.548;2023-03-14T02:23:33;10.30;;;4.20;;
3433;SDS011;1730;41.932;25.548;2023-03-14T02:28:57;6.70;;;3.80;;
3433;SDS011;1730;41.932;25.548;2023-03-14T02:31:23;5.27;;;3.77;;
3433;SDS011;1730;41.932;25.548;2023-03-14T02:33:50;7.97;;;4.40;;
3433;SDS011;1730;41.932;25.548;2023-03-14T02:36:16;5.03;;;3.90;;
3433;SDS011;1730;41.932;25.548;2023-03-14T02:41:13;8.77;;;4.73;;
3433;SDS011;1730;41.932;25.548;2023-03-14T02:43:39;11.27;;;6.30;;
3433;SDS011;1730;41.932;25.548;2023-03-14T02:46:05;5.67;;;5.13;;
3433;SDS011;1730;41.932;25.548;2023-03-14T02:48:39;7.80;;;5.30;;
3433;SDS011;1730;41.932;25.548;2023-03-14T02:51:10;7.97;;;5.70;;
3433;SDS011;1730;41.932;25.548;2023-03-14T02:53:37;13.57;;;6.70;;
3433;SDS011;1730;41.932;25.548;2023-03-14T02:56:03;8.10;;;6.13;;
3433;SDS011;1730;41.932;25.548;2023-03-14T02:58:29;7.20;;;5.47;;
3433;SDS011;1730;41.932;25.548;2023-03-14T03:00:57;7.10;;;5.63;;
3433;SDS011;1730;41.932;25.548;2023-03-14T03:03:22;7.03;;;5.77;;
3433;SDS011;1730;41.932;25.548;2023-03-14T03:05:52;4.80;;;4.37;;
3433;SDS011;1730;41.932;25.548;2023-03-14T03:08:19;4.40;;;4.00;;
3433;SDS011;1730;41.932;25.548;2023-03-14T03:10:47;4.27;;;3.83;;
3433;SDS011;1730;41.932;25.548;2023-03-14T03:13:12;6.27;;;4.47;;
3433;SDS011;1730;41.932;25.548;2023-03-14T03:15:38;6.53;;;5.00;;
3433;SDS011;1730;41.932;25.548;2023-03-14T03:18:03;7.87;;;5.40;;
3433;SDS011;1730;41.932;25.548;2023-03-14T03:20:29;6.93;;;5.27;;
3433;SDS011;1730;41.932;25.548;2023-03-14T03:22:54;6.80;;;4.60;;
3433;SDS011;1730;41.932;25.548;2023-03-14T03:25:20;8.10;;;5.10;;
3433;SDS011;1730;41.932;25.548;2023-03-14T03:27:46;6.13;;;5.53;;
3433;SDS011;1730;41.932;25.548;2023-03-14T03:30:11;8.03;;;5.27;;
3433;SDS011;1730;41.932;25.548;2023-03-14T03:32:37;10.00;;;5.90;;
3433;SDS011;1730;41.932;25.548;2023-03-14T03:35:03;7.97;;;5.10;;
3433;SDS011;1730;41.932;25.548;2023-03-14T03:37:30;8.10;;;4.90;;
3433;SDS011;1730;41.932;25.548;2023-03-14T03:39:56;7.63;;;6.10;;
3433;SDS011;1730;41.932;25.548;2023-03-14T03:42:22;8.83;;;6.30;;
3433;SDS011;1730;41.932;25.548;2023-03-14T03:44:47;7.87;;;6.30;;
3433;SDS011;1730;41.932;25.548;2023-03-14T03:47:13;9.97;;;6.00;;
3433;SDS011;1730;41.932;25.548;2023-03-14T03:49:38;16.90;;;6.37;;
3433;SDS011;1730;41.932;25.548;2023-03-14T03:52:04;9.80;;;6.30;;
3433;SDS011;1730;41.932;25.548;2023-03-14T03:54:29;14.37;;;6.57;;
3433;SDS011;1730;41.932;25.548;2023-03-14T03:56:55;6.30;;;5.30;;
3433;SDS011;1730;41.932;25.548;2023-03-14T03:59:20;16.87;;;4.93;;
3433;SDS011;1730;41.932;25.548;2023-03-14T04:01:46;13.00;;;6.27;;
3433;SDS011;1730;41.932;25.548;2023-03-14T04:04:12;7.07;;;6.07;;
3433;SDS011;1730;41.932;25.548;2023-03-14T04:06:39;8.70;;;5.13;;
3433;SDS011;1730;41.932;25.548;2023-03-14T04:09:05;12.30;;;5.70;;
3433;SDS011;1730;41.932;25.548;2023-03-14T04:11:31;7.07;;;5.90;;
3433;SDS011;1730;41.932;25.548;2023-03-14T04:13:56;12.90;;;7.07;;
3433;SDS011;1730;41.932;25.548;2023-03-14T04:16:22;11.60;;;7.33;;
3433;SDS011;1730;41.932;25.548;2023-03-14T04:18:50;8.37;;;7.07;;
3433;SDS011;1730;41.932;25.548;2023-03-14T04:21:16;10.40;;;7.17;;
3433;SDS011;1730;41.932;25.548;2023-03-14T04:23:42;12.30;;;8.53;;
3433;SDS011;1730;41.932;25.548;2023-03-14T04:26:08;8.70;;;6.50;;
3433;SDS011;1730;41.932;25.548;2023-03-14T04:28:33;6.97;;;6.27;;
3433;SDS011;1730;41.932;25.548;2023-03-14T04:31:07;6.70;;;5.80;;
3433;SDS011;1730;41.932;25.548;2023-03-14T04:33:34;5.90;;;5.03;;
3433;SDS011;1730;41.932;25.548;2023-03-14T04:36:01;6.60;;;5.77;;
3433;SDS011;1730;41.932;25.548;2023-03-14T04:38:27;12.67;;;9.00;;
3433;SDS011;1730;41.932;25.548;2023-03-14T04:40:52;15.40;;;9.13;;
3433;SDS011;1730;41.932;25.548;2023-03-14T04:43:18;24.07;;;11.47;;
3433;SDS011;1730;41.932;25.548;2023-03-14T04:45:43;13.23;;;7.87;;
3433;SDS011;1730;41.932;25.548;2023-03-14T04:48:09;13.93;;;8.20;;
3433;SDS011;1730;41.932;25.548;2023-03-14T04:50:35;18.90;;;12.07;;
3433;SDS011;1730;41.932;25.548;2023-03-14T04:53:00;17.03;;;10.60;;
3433;SDS011;1730;41.932;25.548;2023-03-14T04:55:26;35.50;;;17.93;;
3433;SDS011;1730;41.932;25.548;2023-03-14T04:57:51;46.50;;;23.20;;
3433;SDS011;1730;41.932;25.548;2023-03-14T05:00:17;58.37;;;28.53;;
3433;SDS011;1730;41.932;25.548;2023-03-14T05:02:43;81.37;;;39.00;;
3433;SDS011;1730;41.932;25.548;2023-03-14T05:05:09;85.53;;;38.50;;
3433;SDS011;1730;41.932;25.548;2023-03-14T05:07:35;91.30;;;43.40;;
3433;SDS011;1730;41.932;25.548;2023-03-14T05:10:00;73.43;;;35.90;;
3433;SDS011;1730;41.932;25.548;2023-03-14T05:12:26;56.40;;;29.57;;
3433;SDS011;1730;41.932;25.548;2023-03-14T05:14:51;47.60;;;26.60;;
3433;SDS011;1730;41.932;25.548;2023-03-14T05:17:17;37.40;;;21.57;;
3433;SDS011;1730;41.932;25.548;2023-03-14T05:19:44;34.40;;;20.07;;
3433;SDS011;1730;41.932;25.548;2023-03-14T05:22:10;31.57;;;19.40;;
3433;SDS011;1730;41.932;25.548;2023-03-14T05:24:35;29.80;;;19.83;;
3433;SDS011;1730;41.932;25.548;2023-03-14T05:27:01;27.67;;;18.40;;
3433;SDS011;1730;41.932;25.548;2023-03-14T05:29:26;30.73;;;16.97;;
3433;SDS011;1730;41.932;25.548;2023-03-14T05:31:52;26.17;;;17.03;;
3433;SDS011;1730;41.932;25.548;2023-03-14T05:34:18;27.03;;;15.30;;
3433;SDS011;1730;41.932;25.548;2023-03-14T05:36:43;37.03;;;18.50;;
3433;SDS011;1730;41.932;25.548;2023-03-14T05:39:08;31.23;;;16.97;;
3433;SDS011;1730;41.932;25.548;2023-03-14T05:41:34;30.90;;;17.40;;
3433;SDS011;1730;41.932;25.548;2023-03-14T05:44:00;25.30;;;15.70;;
3433;SDS011;1730;41.932;25.548;2023-03-14T05:46:26;28.57;;;14.83;;
3433;SDS011;1730;41.932;25.548;2023-03-14T05:48:51;25.17;;;13.60;;
3433;SDS011;1730;41.932;25.548;2023-03-14T05:51:17;18.90;;;13.00;;
3433;SDS011;1730;41.932;25.548;2023-03-14T05:53:42;29.37;;;14.93;;
3433;SDS011;1730;41.932;25.548;2023-03-14T05:56:08;22.13;;;14.67;;
3433;SDS011;1730;41.932;25.548;2023-03-14T05:58:34;22.17;;;13.07;;
3433;SDS011;1730;41.932;25.548;2023-03-14T06:01:03;20.80;;;12.13;;
3433;SDS011;1730;41.932;25.548;2023-03-14T06:03:30;25.37;;;14.60;;
3433;SDS011;1730;41.932;25.548;2023-03-14T06:05:56;36.50;;;17.13;;
3433;SDS011;1730;41.932;25.548;2023-03-14T06:08:22;26.40;;;16.00;;
3433;SDS011;1730;41.932;25.548;2023-03-14T06:10:48;25.47;;;16.10;;
3433;SDS011;1730;41.932;25.548;2023-03-14T06:13:13;27.53;;;15.97;;
3433;SDS011;1730;41.932;25.548;2023-03-14T06:15:40;26.30;;;15.43;;
3433;SDS011;1730;41.932;25.548;2023-03-14T06:18:06;28.97;;;17.50;;
3433;SDS011;1730;41.932;25.548;2023-03-14T06:20:32;24.07;;;16.10;;
3433;SDS011;1730;41.932;25.548;2023-03-14T06:23:00;28.10;;;15.83;;
3433;SDS011;1730;41.932;25.548;2023-03-14T06:25:25;29.90;;;16.50;;
3433;SDS011;1730;41.932;25.548;2023-03-14T06:27:51;23.40;;;15.93;;
3433;SDS011;1730;41.932;25.548;2023-03-14T06:30:16;20.40;;;12.30;;
3433;SDS011;1730;41.932;25.548;2023-03-14T06:32:42;17.40;;;12.43;;
3433;SDS011;1730;41.932;25.548;2023-03-14T06:35:08;21.30;;;14.53;;
3433;SDS011;1730;41.932;25.548;2023-03-14T06:37:33;22.03;;;13.43;;
3433;SDS011;1730;41.932;25.548;2023-03-14T06:39:59;22.73;;;14.20;;
3433;SDS011;1730;41.932;25.548;2023-03-14T06:42:25;21.97;;;14.47;;
3433;SDS011;1730;41.932;25.548;2023-03-14T06:44:50;24.50;;;14.33;;
3433;SDS011;1730;41.932;25.548;2023-03-14T06:47:16;18.63;;;13.43;;
3433;SDS011;1730;41.932;25.548;2023-03-14T06:49:41;25.23;;;14.20;;
3433;SDS011;1730;41.932;25.548;2023-03-14T06:52:06;21.13;;;14.20;;
3433;SDS011;1730;41.932;25.548;2023-03-14T06:54:32;41.47;;;15.03;;
3433;SDS011;1730;41.932;25.548;2023-03-14T06:56:58;33.67;;;17.40;;
3433;SDS011;1730;41.932;25.548;2023-03-14T06:59:24;24.87;;;15.33;;
3433;SDS011;1730;41.932;25.548;2023-03-14T07:01:49;21.30;;;16.17;;
3433;SDS011;1730;41.932;25.548;2023-03-14T07:04:16;25.13;;;15.80;;
3433;SDS011;1730;41.932;25.548;2023-03-14T07:06:42;23.95;;;15.45;;
3433;SDS011;1730;41.932;25.548;2023-03-14T07:09:12;32.23;;;14.70;;
3433;SDS011;1730;41.932;25.548;2023-03-14T07:11:38;21.33;;;16.03;;
3433;SDS011;1730;41.932;25.548;2023-03-14T07:14:04;25.63;;;13.93;;
3433;SDS011;1730;41.932;25.548;2023-03-14T07:16:29;19.10;;;11.30;;
3433;SDS011;1730;41.932;25.548;2023-03-14T07:18:58;6.47;;;5.90;;
3433;SDS011;1730;41.932;25.548;2023-03-14T07:21:26;13.93;;;7.20;;
3433;SDS011;1730;41.932;25.548;2023-03-14T07:23:52;6.13;;;5.50;;
3433;SDS011;1730;41.932;25.548;2023-03-14T07:26:17;5.90;;;5.30;;
3433;SDS011;1730;41.932;25.548;2023-03-14T07:28:43;10.50;;;5.70;;
3433;SDS011;1730;41.932;25.548;2023-03-14T07:31:09;8.87;;;5.10;;
3433;SDS011;1730;41.932;25.548;2023-03-14T07:33:35;5.20;;;4.80;;
3433;SDS011;1730;41.932;25.548;2023-03-14T07:36:00;15.90;;;6.73;;
3433;SDS011;1730;41.932;25.548;2023-03-14T07:38:26;15.63;;;8.63;;
3433;SDS011;1730;41.932;25.548;2023-03-14T07:40:57;6.37;;;4.60;;
3433;SDS011;1730;41.932;25.548;2023-03-14T07:43:25;5.53;;;5.03;;
3433;SDS011;1730;41.932;25.548;2023-03-14T07:45:51;6.70;;;5.60;;
3433;SDS011;1730;41.932;25.548;2023-03-14T07:48:18;7.63;;;6.27;;
3433;SDS011;1730;41.932;25.548;2023-03-14T07:50:51;14.27;;;6.00;;
3433;SDS011;1730;41.932;25.548;2023-03-14T07:53:18;10.90;;;4.50;;
3433;SDS011;1730;41.932;25.548;2023-03-14T07:55:45;5.20;;;3.90;;
3433;SDS011;1730;41.932;25.548;2023-03-14T07:58:11;7.30;;;5.93;;
3433;SDS011;1730;41.932;25.548;2023-03-14T08:00:37;6.87;;;3.87;;
3433;SDS011;1730;41.932;25.548;2023-03-14T08:03:03;6.23;;;4.93;;
3433;SDS011;1730;41.932;25.548;2023-03-14T08:05:30;7.77;;;4.40;;
3433;SDS011;1730;41.932;25.548;2023-03-14T08:07:56;7.87;;;4.90;;
3433;SDS011;1730;41.932;25.548;2023-03-14T08:10:21;6.87;;;5.33;;
3433;SDS011;1730;41.932;25.548;2023-03-14T08:12:53;7.93;;;4.03;;
3433;SDS011;1730;41.932;25.548;2023-03-14T08:15:22;6.73;;;4.30;;
3433;SDS011;1730;41.932;25.548;2023-03-14T08:17:52;4.50;;;4.03;;
3433;SDS011;1730;41.932;25.548;2023-03-14T08:20:23;7.37;;;5.43;;
3433;SDS011;1730;41.932;25.548;2023-03-14T08:22:51;4.47;;;4.10;;
3433;SDS011;1730;41.932;25.548;2023-03-14T08:25:17;6.93;;;4.90;;
3433;SDS011;1730;41.932;25.548;2023-03-14T08:27:43;8.33;;;5.10;;
3433;SDS011;1730;41.932;25.548;2023-03-14T08:30:10;10.20;;;6.20;;
3433;SDS011;1730;41.932;25.548;2023-03-14T08:32:39;10.70;;;6.10;;
3433;SDS011;1730;41.932;25.548;2023-03-14T08:35:06;18.03;;;5.70;;
3433;SDS011;1730;41.932;25.548;2023-03-14T08:37:32;7.03;;;5.60;;
3433;SDS011;1730;41.932;25.548;2023-03-14T08:39:58;10.57;;;5.60;;
3433;SDS011;1730;41.932;25.548;2023-03-14T08:42:24;8.40;;;6.20;;
3433;SDS011;1730;41.932;25.548;2023-03-14T08:44:50;10.03;;;5.80;;
3433;SDS011;1730;41.932;25.548;2023-03-14T08:47:17;15.23;;;5.97;;
3433;SDS011;1730;41.932;25.548;2023-03-14T08:49:42;9.77;;;5.80;;
3433;SDS011;1730;41.932;25.548;2023-03-14T08:52:08;13.87;;;5.63;;
3433;SDS011;1730;41.932;25.548;2023-03-14T08:54:34;5.87;;;5.30;;
3433;SDS011;1730;41.932;25.548;2023-03-14T08:57:00;7.33;;;4.90;;
3433;SDS011;1730;41.932;25.548;2023-03-14T08:59:27;5.87;;;4.50;;
3433;SDS011;1730;41.932;25.548;2023-03-14T09:01:52;10.50;;;5.10;;
3433;SDS011;1730;41.932;25.548;2023-03-14T09:04:19;8.40;;;4.77;;
3433;SDS011;1730;41.932;25.548;2023-03-14T09:06:46;6.70;;;4.60;;
3433;SDS011;1730;41.932;25.548;2023-03-14T09:09:11;6.43;;;5.17;;
3433;SDS011;1730;41.932;25.548;2023-03-14T09:11:42;8.97;;;4.50;;
3433;SDS011;1730;41.932;25.548;2023-03-14T09:14:07;5.90;;;4.80;;
3433;SDS011;1730;41.932;25.548;2023-03-14T09:16:33;10.00;;;4.77;;
3433;SDS011;1730;41.932;25.548;2023-03-14T09:18:59;7.77;;;4.87;;
3433;SDS011;1730;41.932;25.548;2023-03-14T09:21:27;11.83;;;5.47;;
3433;SDS011;1730;41.932;25.548;2023-03-14T09:23:53;6.90;;;4.67;;
3433;SDS011;1730;41.932;25.548;2023-03-14T09:26:20;8.20;;;4.67;;
3433;SDS011;1730;41.932;25.548;2023-03-14T09:28:46;14.03;;;5.40;;
3433;SDS011;1730;41.932;25.548;2023-03-14T09:31:12;5.03;;;4.60;;
3433;SDS011;1730;41.932;25.548;2023-03-14T09:33:38;21.13;;;5.50;;
3433;SDS011;1730;41.932;25.548;2023-03-14T09:36:04;16.17;;;5.03;;
3433;SDS011;1730;41.932;25.548;2023-03-14T09:38:31;6.37;;;4.90;;
3433;SDS011;1730;41.932;25.548;2023-03-14T09:40:58;5.97;;;5.37;;
3433;SDS011;1730;41.932;25.548;2023-03-14T09:43:26;5.87;;;5.10;;
3433;SDS011;1730;41.932;25.548;2023-03-14T09:45:55;6.70;;;5.37;;
3433;SDS011;1730;41.932;25.548;2023-03-14T09:48:27;5.20;;;4.70;;
3433;SDS011;1730;41.932;25.548;2023-03-14T09:50:57;3.53;;;3.20;;
3433;SDS011;1730;41.932;25.548;2023-03-14T09:53:26;8.93;;;3.80;;
3433;SDS011;1730;41.932;25.548;2023-03-14T09:55:55;7.80;;;4.40;;
3433;SDS011;1730;41.932;25.548;2023-03-14T09:58:24;7.97;;;3.50;;
3433;SDS011;1730;41.932;25.548;2023-03-14T10:00:53;3.37;;;3.17;;
3433;SDS011;1730;41.932;25.548;2023-03-14T10:03:34;3.27;;;3.00;;
3433;SDS011;1730;41.932;25.548;2023-03-14T10:06:00;17.00;;;6.90;;
3433;SDS011;1730;41.932;25.548;2023-03-14T10:08:26;3.20;;;3.00;;
3433;SDS011;1730;41.932;25.548;2023-03-14T10:10:53;2.53;;;2.33;;
3433;SDS011;1730;41.932;25.548;2023-03-14T10:13:23;2.70;;;2.50;;
3433;SDS011;1730;41.932;25.548;2023-03-14T10:15:55;2.40;;;2.20;;
3433;SDS011;1730;41.932;25.548;2023-03-14T10:18:25;2.43;;;2.23;;
3433;SDS011;1730;41.932;25.548;2023-03-14T10:21:01;5.40;;;2.57;;
3433;SDS011;1730;41.932;25.548;2023-03-14T10:23:33;4.43;;;2.77;;
3433;SDS011;1730;41.932;25.548;2023-03-14T10:29:03;3.60;;;3.30;;
3433;SDS011;1730;41.932;25.548;2023-03-14T10:32:10;4.63;;;4.00;;
3433;SDS011;1730;41.932;25.548;2023-03-14T10:34:36;3.43;;;2.90;;
3433;SDS011;1730;41.932;25.548;2023-03-14T10:37:06;3.87;;;3.50;;
3433;SDS011;1730;41.932;25.548;2023-03-14T10:44:58;4.43;;;4.07;;
3433;SDS011;1730;41.932;25.548;2023-03-14T10:47:27;4.17;;;3.87;;
3433;SDS011;1730;41.932;25.548;2023-03-14T10:49:53;3.17;;;2.83;;
3433;SDS011;1730;41.932;25.548;2023-03-14T10:52:21;3.87;;;2.83;;
3433;SDS011;1730;41.932;25.548;2023-03-14T10:54:58;4.50;;;3.07;;
3433;SDS011;1730;41.932;25.548;2023-03-14T10:57:26;4.23;;;3.30;;
3433;SDS011;1730;41.932;25.548;2023-03-14T10:59:52;6.73;;;3.10;;
3433;SDS011;1730;41.932;25.548;2023-03-14T11:07:59;5.47;;;3.53;;
3433;SDS011;1730;41.932;25.548;2023-03-14T11:21:08;2.63;;;2.43;;
3433;SDS011;1730;41.932;25.548;2023-03-14T11:26:20;3.83;;;2.27;;
3433;SDS011;1730;41.932;25.548;2023-03-14T11:29:08;4.60;;;2.73;;
3433;SDS011;1730;41.932;25.548;2023-03-14T11:31:44;2.60;;;2.40;;
3433;SDS011;1730;41.932;25.548;2023-03-14T11:34:20;2.87;;;2.67;;
3433;SDS011;1730;41.932;25.548;2023-03-14T11:37:05;5.10;;;4.30;;
3433;SDS011;1730;41.932;25.548;2023-03-14T11:39:39;4.13;;;3.10;;
3433;SDS011;1730;41.932;25.548;2023-03-14T11:42:14;5.67;;;2.43;;
3433;SDS011;1730;41.932;25.548;2023-03-14T11:44:42;3.07;;;2.13;;
3433;SDS011;1730;41.932;25.548;2023-03-14T11:52:50;2.23;;;2.00;;
3433;SDS011;1730;41.932;25.548;2023-03-14T11:55:24;3.37;;;2.00;;
3433;SDS011;1730;41.932;25.548;2023-03-14T11:58:31;1.93;;;1.80;;
3433;SDS011;1730;41.932;25.548;2023-03-14T12:00:54;1.80;;;1.70;;
3433;SDS011;1730;41.932;25.548;2023-03-14T12:03:31;1.80;;;1.70;;
3433;SDS011;1730;41.932;25.548;2023-03-14T12:11:13;4.33;;;1.87;;
3433;SDS011;1730;41.932;25.548;2023-03-14T12:13:46;2.40;;;2.20;;
3433;SDS011;1730;41.932;25.548;2023-03-14T12:18:57;3.93;;;2.00;;
3433;SDS011;1730;41.932;25.548;2023-03-14T12:21:47;5.90;;;2.70;;
3433;SDS011;1730;41.932;25.548;2023-03-14T12:24:25;1.90;;;1.67;;
3433;SDS011;1730;41.932;25.548;2023-03-14T12:26:58;1.40;;;1.30;;
3433;SDS011;1730;41.932;25.548;2023-03-14T12:29:25;1.77;;;1.67;;
3433;SDS011;1730;41.932;25.548;2023-03-14T12:34:27;1.60;;;1.50;;
3433;SDS011;1730;41.932;25.548;2023-03-14T12:45:33;3.90;;;1.80;;
3433;SDS011;1730;41.932;25.548;2023-03-14T12:48:10;2.70;;;1.50;;
3433;SDS011;1730;41.932;25.548;2023-03-14T13:01:20;3.10;;;1.30;;
3433;SDS011;1730;41.932;25.548;2023-03-14T13:03:53;2.70;;;2.03;;
3433;SDS011;1730;41.932;25.548;2023-03-14T13:12:00;1.43;;;1.33;;
3433;SDS011;1730;41.932;25.548;2023-03-14T13:14:28;1.80;;;1.67;;
3433;SDS011;1730;41.932;25.548;2023-03-14T13:16:58;1.60;;;1.50;;
3433;SDS011;1730;41.932;25.548;2023-03-14T13:19:25;2.13;;;1.40;;
3433;SDS011;1730;41.932;25.548;2023-03-14T13:22:00;1.53;;;1.43;;
3433;SDS011;1730;41.932;25.548;2023-03-14T13:24:28;2.07;;;1.67;;
3433;SDS011;1730;41.932;25.548;2023-03-14T13:26:55;2.37;;;2.20;;
3433;SDS011;1730;41.932;25.548;2023-03-14T13:29:29;2.30;;;1.83;;
3433;SDS011;1730;41.932;25.548;2023-03-14T13:32:01;2.00;;;1.80;;
3433;SDS011;1730;41.932;25.548;2023-03-14T13:34:38;2.67;;;2.47;;
3433;SDS011;1730;41.932;25.548;2023-03-14T13:37:03;3.67;;;3.37;;
3433;SDS011;1730;41.932;25.548;2023-03-14T13:39:29;3.70;;;2.33;;
3433;SDS011;1730;41.932;25.548;2023-03-14T13:41:59;2.07;;;1.57;;
3433;SDS011;1730;41.932;25.548;2023-03-14T13:44:28;1.60;;;1.50;;
3433;SDS011;1730;41.932;25.548;2023-03-14T13:47:03;2.33;;;1.80;;
3433;SDS011;1730;41.932;25.548;2023-03-14T13:49:30;2.23;;;1.73;;
3433;SDS011;1730;41.932;25.548;2023-03-14T13:52:00;2.00;;;1.70;;
3433;SDS011;1730;41.932;25.548;2023-03-14T13:54:26;1.60;;;1.50;;
3433;SDS011;1730;41.932;25.548;2023-03-14T13:56:59;2.73;;;1.70;;
3433;SDS011;1730;41.932;25.548;2023-03-14T13:59:32;1.30;;;1.20;;
3433;SDS011;1730;41.932;25.548;2023-03-14T14:02:01;2.23;;;1.70;;
3433;SDS011;1730;41.932;25.548;2023-03-14T14:04:35;1.73;;;1.63;;
3433;SDS011;1730;41.932;25.548;2023-03-14T14:07:06;3.00;;;1.60;;
3433;SDS011;1730;41.932;25.548;2023-03-14T14:09:43;1.20;;;1.00;;
3433;SDS011;1730;41.932;25.548;2023-03-14T14:12:15;2.13;;;1.57;;
3433;SDS011;1730;41.932;25.548;2023-03-14T14:20:00;1.37;;;1.23;;
3433;SDS011;1730;41.932;25.548;2023-03-14T14:22:30;1.60;;;1.50;;
3433;SDS011;1730;41.932;25.548;2023-03-14T14:24:58;1.10;;;0.90;;
3433;SDS011;1730;41.932;25.548;2023-03-14T14:27:44;1.40;;;1.30;;
3433;SDS011;1730;41.932;25.548;2023-03-14T14:32:43;2.60;;;2.30;;
3433;SDS011;1730;41.932;25.548;2023-03-14T14:35:10;1.70;;;1.60;;
3433;SDS011;1730;41.932;25.548;2023-03-14T14:37:48;2.30;;;1.90;;
3433;SDS011;1730;41.932;25.548;2023-03-14T14:40:21;1.50;;;1.27;;
3433;SDS011;1730;41.932;25.548;2023-03-14T14:42:49;4.83;;;4.43;;
3433;SDS011;1730;41.932;25.548;2023-03-14T14:45:22;5.63;;;1.87;;
3433;SDS011;1730;41.932;25.548;2023-03-14T14:48:03;3.40;;;1.97;;
3433;SDS011;1730;41.932;25.548;2023-03-14T14:50:33;1.70;;;1.47;;
3433;SDS011;1730;41.932;25.548;2023-03-14T14:53:18;2.03;;;1.83;;
3433;SDS011;1730;41.932;25.548;2023-03-14T14:55:45;3.50;;;2.80;;
3433;SDS011;1730;41.932;25.548;2023-03-14T14:58:27;4.57;;;3.43;;
3433;SDS011;1730;41.932;25.548;2023-03-14T15:00:56;4.10;;;3.70;;
3433;SDS011;1730;41.932;25.548;2023-03-14T15:03:31;5.97;;;3.97;;
3433;SDS011;1730;41.932;25.548;2023-03-14T15:05:58;10.00;;;5.83;;
3433;SDS011;1730;41.932;25.548;2023-03-14T15:08:25;4.57;;;4.00;;
3433;SDS011;1730;41.932;25.548;2023-03-14T15:10:51;7.23;;;6.53;;
3433;SDS011;1730;41.932;25.548;2023-03-14T15:13:17;7.17;;;5.40;;
3433;SDS011;1730;41.932;25.548;2023-03-14T15:15:43;7.67;;;5.60;;
3433;SDS011;1730;41.932;25.548;2023-03-14T15:18:13;6.73;;;5.60;;
3433;SDS011;1730;41.932;25.548;2023-03-14T15:20:41;4.40;;;4.00;;
3433;SDS011;1730;41.932;25.548;2023-03-14T15:23:09;5.23;;;4.80;;
3433;SDS011;1730;41.932;25.548;2023-03-14T15:25:36;4.63;;;4.23;;
3433;SDS011;1730;41.932;25.548;2023-03-14T15:28:05;7.90;;;4.30;;
3433;SDS011;1730;41.932;25.548;2023-03-14T15:30:37;5.90;;;5.30;;
3433;SDS011;1730;41.932;25.548;2023-03-14T15:33:03;5.73;;;5.17;;
3433;SDS011;1730;41.932;25.548;2023-03-14T15:35:29;5.53;;;5.03;;
3433;SDS011;1730;41.932;25.548;2023-03-14T15:37:54;11.43;;;8.30;;
3433;SDS011;1730;41.932;25.548;2023-03-14T15:40:20;25.83;;;14.37;;
3433;SDS011;1730;41.932;25.548;2023-03-14T15:42:49;8.03;;;7.23;;
3433;SDS011;1730;41.932;25.548;2023-03-14T15:45:14;9.37;;;7.77;;
3433;SDS011;1730;41.932;25.548;2023-03-14T15:47:40;9.27;;;6.87;;
3433;SDS011;1730;41.932;25.548;2023-03-14T15:50:06;7.70;;;5.80;;
3433;SDS011;1730;41.932;25.548;2023-03-14T15:52:35;5.40;;;3.70;;
3433;SDS011;1730;41.932;25.548;2023-03-14T15:55:00;5.17;;;4.67;;
3433;SDS011;1730;41.932;25.548;2023-03-14T15:57:26;4.70;;;4.40;;
3433;SDS011;1730;41.932;25.548;2023-03-14T15:59:51;6.83;;;5.07;;
3433;SDS011;1730;41.932;25.548;2023-03-14T16:02:17;5.17;;;4.70;;
3433;SDS011;1730;41.932;25.548;2023-03-14T16:04:42;11.73;;;5.00;;
3433;SDS011;1730;41.932;25.548;2023-03-14T16:07:08;5.57;;;4.83;;
3433;SDS011;1730;41.932;25.548;2023-03-14T16:09:34;6.17;;;5.60;;
3433;SDS011;1730;41.932;25.548;2023-03-14T16:12:00;8.00;;;5.97;;
3433;SDS011;1730;41.932;25.548;2023-03-14T16:14:26;11.60;;;5.97;;
3433;SDS011;1730;41.932;25.548;2023-03-14T16:16:52;11.30;;;6.47;;
3433;SDS011;1730;41.932;25.548;2023-03-14T16:19:18;13.27;;;8.30;;
3433;SDS011;1730;41.932;25.548;2023-03-14T16:21:43;14.43;;;9.17;;
3433;SDS011;1730;41.932;25.548;2023-03-14T16:24:09;12.10;;;9.43;;
3433;SDS011;1730;41.932;25.548;2023-03-14T16:26:34;13.03;;;6.87;;